createdAt,value
2024-02-19T00:01:32.353Z,4.43
2024-02-19T00:04:00.012Z,3.15
2024-02-19T00:06:27.788Z,5.65
2024-02-19T00:08:55.598Z,5.05
2024-02-19T00:11:23.299Z,4.57
2024-02-19T00:13:51.238Z,4.32
2024-02-19T00:16:18.821Z,3.92
2024-02-19T00:18:47.026Z,3.90
2024-02-19T00:21:17.833Z,4.63
2024-02-19T00:23:45.432Z,4.82
2024-02-19T00:26:15.605Z,4.72
2024-02-19T00:28:43.697Z,4.00
2024-02-19T00:31:14.776Z,4.75
2024-02-19T00:33:43.042Z,4.25
2024-02-19T00:36:10.842Z,3.03
2024-02-19T00:38:38.323Z,5.25
2024-02-19T00:41:05.893Z,4.18
2024-02-19T00:43:33.342Z,4.13
2024-02-19T00:46:01.147Z,3.28
2024-02-19T00:48:29.020Z,2.90
2024-02-19T00:50:56.501Z,3.20
2024-02-19T00:53:24.050Z,3.33
2024-02-19T00:55:53.907Z,2.78
2024-02-19T00:58:21.810Z,4.07
2024-02-19T01:00:49.417Z,2.55
2024-02-19T01:03:18.381Z,3.78
2024-02-19T01:05:46.005Z,3.53
2024-02-19T01:08:13.556Z,3.67
2024-02-19T01:10:41.176Z,4.55
2024-02-19T01:13:09.025Z,2.95
2024-02-19T01:15:37.078Z,4.75
2024-02-19T01:18:05.813Z,5.50
2024-02-19T01:20:33.443Z,5.88
2024-02-19T01:23:00.953Z,4.10
2024-02-19T01:25:28.539Z,4.95
2024-02-19T01:27:56.302Z,3.50
2024-02-19T01:30:24.164Z,2.92
2024-02-19T01:32:51.860Z,3.83
2024-02-19T01:35:19.554Z,3.17
2024-02-19T01:37:47.415Z,4.68
2024-02-19T01:40:15.319Z,3.78
2024-02-19T01:42:43.027Z,2.67
2024-02-19T01:45:38.488Z,3.55
2024-02-19T01:48:07.326Z,3.92
2024-02-19T01:50:36.610Z,3.45
2024-02-19T01:53:08.868Z,3.55
2024-02-19T01:55:38.900Z,2.63
2024-02-19T01:58:08.416Z,2.40
2024-02-19T02:00:44.732Z,3.75
2024-02-19T02:03:16.025Z,3.70
2024-02-19T02:05:43.809Z,3.25
2024-02-19T02:08:11.423Z,2.88
2024-02-19T02:10:38.991Z,3.65
2024-02-19T02:13:06.823Z,3.03
2024-02-19T02:15:34.662Z,3.20
2024-02-19T02:18:02.531Z,3.35
2024-02-19T02:20:32.609Z,5.22
2024-02-19T02:23:00.219Z,2.78
2024-02-19T02:25:27.839Z,4.53
2024-02-19T02:27:55.465Z,4.03
2024-02-19T02:30:23.202Z,2.75
2024-02-19T02:32:54.671Z,3.03
2024-02-19T02:35:24.980Z,3.13
2024-02-19T02:37:52.575Z,3.53
2024-02-19T02:40:20.234Z,3.88
2024-02-19T02:42:47.933Z,2.50
2024-02-19T02:45:15.340Z,3.80
2024-02-19T02:47:42.851Z,6.20
2024-02-19T02:50:10.687Z,4.38
2024-02-19T02:52:38.438Z,4.13
2024-02-19T02:55:06.432Z,4.85
2024-02-19T02:57:33.976Z,3.92
2024-02-19T03:00:01.656Z,3.40
2024-02-19T03:02:34.268Z,3.20
2024-02-19T03:05:02.218Z,3.55
2024-02-19T03:07:30.868Z,3.60
2024-02-19T03:09:58.668Z,2.92
2024-02-19T03:12:26.114Z,3.00
2024-02-19T03:14:54.051Z,3.15
2024-02-19T03:17:22.081Z,3.80
2024-02-19T03:19:49.893Z,7.13
2024-02-19T03:22:17.678Z,4.50
2024-02-19T03:24:45.238Z,3.13
2024-02-19T03:27:14.090Z,3.22
2024-02-19T03:29:41.973Z,2.97
2024-02-19T03:32:09.601Z,2.60
2024-02-19T03:34:37.238Z,2.42
2024-02-19T03:37:04.764Z,2.42
2024-02-19T03:39:32.471Z,3.63
2024-02-19T03:42:01.737Z,2.30
2024-02-19T03:44:29.468Z,3.30
2024-02-19T03:47:00.145Z,2.78
2024-02-19T03:49:29.197Z,2.13
2024-02-19T03:51:57.013Z,2.15
2024-02-19T03:54:24.535Z,2.95
2024-02-19T03:56:52.614Z,2.65
2024-02-19T03:59:20.162Z,4.40
2024-02-19T04:01:47.821Z,3.13
2024-02-19T04:04:17.923Z,3.58
2024-02-19T04:06:45.881Z,2.67
2024-02-19T04:09:13.533Z,5.68
2024-02-19T04:11:41.094Z,3.72
2024-02-19T04:14:08.868Z,2.47
2024-02-19T04:16:36.280Z,2.40
2024-02-19T04:19:04.128Z,3.47
2024-02-19T04:21:31.789Z,2.33
2024-02-19T04:23:59.618Z,4.00
2024-02-19T04:26:27.130Z,2.30
2024-02-19T04:28:55.215Z,2.85
2024-02-19T04:31:22.664Z,2.80
2024-02-19T04:33:50.602Z,3.47
2024-02-19T04:36:18.244Z,4.63
2024-02-19T04:38:45.913Z,3.85
2024-02-19T04:41:13.296Z,5.88
2024-02-19T04:43:40.947Z,2.80
2024-02-19T04:46:08.700Z,4.75
2024-02-19T04:48:37.483Z,4.60
2024-02-19T04:51:06.618Z,5.35
2024-02-19T04:53:34.446Z,6.07
2024-02-19T04:56:02.622Z,6.10
2024-02-19T04:58:30.402Z,8.18
2024-02-19T05:00:57.933Z,7.47
2024-02-19T05:03:25.405Z,5.15
2024-02-19T05:05:52.881Z,6.38
2024-02-19T05:08:20.482Z,4.05
2024-02-19T05:10:48.002Z,3.80
2024-02-19T05:13:15.596Z,2.83
2024-02-19T05:15:43.560Z,2.85
2024-02-19T05:18:11.340Z,2.63
2024-02-19T05:20:39.023Z,2.60
2024-02-19T05:23:06.494Z,3.78
2024-02-19T05:25:33.892Z,4.30
2024-02-19T05:28:02.311Z,8.90
2024-02-19T05:30:30.017Z,3.17
2024-02-19T05:32:57.608Z,4.78
2024-02-19T05:35:26.463Z,3.65
2024-02-19T05:37:54.215Z,4.10
2024-02-19T05:40:21.815Z,2.95
2024-02-19T05:42:49.563Z,5.18
2024-02-19T05:45:17.102Z,4.22
2024-02-19T05:47:44.909Z,4.70
2024-02-19T05:50:12.582Z,3.72
2024-02-19T05:52:40.470Z,4.78
2024-02-19T05:55:10.822Z,3.67
2024-02-19T05:57:39.193Z,3.80
2024-02-19T06:00:12.416Z,4.85
2024-02-19T06:02:40.468Z,4.07
2024-02-19T06:05:09.307Z,5.32
2024-02-19T06:07:37.226Z,5.53
2024-02-19T06:10:09.075Z,4.35
2024-02-19T06:12:36.730Z,5.63
2024-02-19T06:15:04.976Z,4.97
2024-02-19T06:17:32.941Z,4.78
2024-02-19T06:20:00.543Z,5.18
2024-02-19T06:22:28.251Z,6.13
2024-02-19T06:24:55.752Z,4.78
2024-02-19T06:27:23.397Z,7.82
2024-02-19T06:29:50.782Z,6.55
2024-02-19T06:32:18.454Z,4.60
2024-02-19T06:34:46.333Z,4.95
2024-02-19T06:37:14.130Z,5.90
2024-02-19T06:39:42.666Z,7.43
2024-02-19T06:42:10.209Z,8.30
2024-02-19T06:44:37.749Z,7.85
2024-02-19T06:47:05.493Z,7.07
2024-02-19T06:49:33.249Z,7.53
2024-02-19T06:52:01.051Z,7.47
2024-02-19T06:54:31.354Z,5.20
2024-02-19T06:57:00.069Z,5.10
2024-02-19T06:59:27.861Z,3.25
2024-02-19T07:01:55.342Z,4.97
2024-02-19T07:04:23.278Z,4.60
2024-02-19T07:06:51.126Z,5.30
2024-02-19T07:09:19.799Z,3.53
2024-02-19T07:11:47.251Z,4.72
2024-02-19T07:14:16.337Z,4.80
2024-02-19T07:16:43.677Z,5.30
2024-02-19T07:19:11.408Z,4.45
2024-02-19T07:21:39.849Z,4.30
2024-02-19T07:24:07.405Z,3.28
2024-02-19T07:26:35.574Z,3.50
2024-02-19T07:29:03.093Z,4.35
2024-02-19T07:31:30.695Z,5.65
2024-02-19T07:33:58.447Z,4.88
2024-02-19T07:36:26.154Z,3.38
2024-02-19T07:38:53.881Z,4.20
2024-02-19T07:41:22.235Z,5.35
2024-02-19T07:43:50.811Z,4.25
2024-02-19T07:46:20.520Z,5.45
2024-02-19T07:48:48.456Z,8.50
2024-02-19T07:51:16.340Z,6.25
2024-02-19T07:53:44.079Z,7.05
2024-02-19T07:56:12.310Z,6.88
2024-02-19T07:58:40.294Z,6.18
2024-02-19T08:01:08.097Z,6.05
2024-02-19T08:03:36.137Z,5.95
2024-02-19T08:06:03.855Z,3.22
2024-02-19T08:08:31.844Z,4.32
2024-02-19T08:10:59.880Z,5.40
2024-02-19T08:13:27.570Z,4.95
2024-02-19T08:15:55.381Z,3.67
2024-02-19T08:18:23.174Z,3.03
2024-02-19T08:20:52.984Z,5.20
2024-02-19T08:23:20.766Z,4.30
2024-02-19T08:25:49.088Z,2.78
2024-02-19T08:28:17.088Z,3.65
2024-02-19T08:30:45.465Z,3.63
2024-02-19T08:33:13.217Z,4.18
2024-02-19T08:35:41.016Z,5.38
2024-02-19T08:38:09.286Z,7.43
2024-02-19T08:40:36.856Z,6.70
2024-02-19T08:43:04.493Z,7.07
2024-02-19T08:45:36.832Z,4.10
2024-02-19T08:48:06.152Z,3.80
2024-02-19T08:50:33.985Z,2.90
2024-02-19T08:53:02.089Z,3.42
2024-02-19T08:55:29.787Z,3.50
2024-02-19T08:57:57.686Z,3.33
2024-02-19T09:00:25.383Z,4.00
2024-02-19T09:02:54.195Z,3.30
2024-02-19T09:05:23.950Z,4.25
2024-02-19T09:07:51.547Z,4.40
2024-02-19T09:10:19.521Z,3.35
2024-02-19T09:12:47.260Z,4.03
2024-02-19T09:15:14.745Z,4.60
2024-02-19T09:17:42.378Z,5.90
2024-02-19T09:20:10.782Z,6.35
2024-02-19T09:22:38.881Z,7.38
2024-02-19T09:25:06.460Z,7.82
2024-02-19T09:27:34.693Z,4.32
2024-02-19T09:30:02.272Z,4.97
2024-02-19T09:32:31.650Z,5.88
2024-02-19T09:34:59.426Z,6.00
2024-02-19T09:37:27.302Z,5.75
2024-02-19T09:40:00.322Z,6.30
2024-02-19T09:42:29.056Z,7.15
2024-02-19T09:44:57.097Z,3.90
2024-02-19T09:47:25.460Z,5.13
2024-02-19T09:49:54.683Z,5.72
2024-02-19T09:52:30.036Z,6.22
2024-02-19T09:54:58.990Z,4.72
2024-02-19T09:57:29.577Z,5.28
2024-02-19T10:00:04.070Z,5.57
2024-02-19T10:02:34.672Z,5.28
2024-02-19T10:05:02.770Z,4.30
2024-02-19T10:07:32.795Z,6.90
2024-02-19T10:10:01.041Z,5.65
2024-02-19T10:12:30.883Z,6.93
2024-02-19T10:14:58.798Z,4.32
2024-02-19T10:17:33.709Z,6.15
2024-02-19T10:20:07.935Z,5.78
2024-02-19T10:22:36.177Z,4.35
2024-02-19T10:25:08.916Z,5.70
2024-02-19T10:27:38.814Z,5.47
2024-02-19T10:30:10.611Z,6.13
2024-02-19T10:32:38.857Z,8.02
2024-02-19T10:35:07.837Z,4.35
2024-02-19T10:37:38.536Z,6.13
2024-02-19T10:40:10.419Z,4.65
2024-02-19T10:42:39.641Z,4.38
2024-02-19T10:45:10.438Z,5.30
2024-02-19T10:47:39.935Z,6.50
2024-02-19T10:50:09.137Z,5.97
2024-02-19T10:52:41.160Z,3.63
2024-02-19T10:55:26.219Z,3.80
2024-02-19T10:58:01.585Z,3.72
2024-02-19T11:00:29.840Z,3.65
2024-02-19T11:03:07.821Z,5.68
2024-02-19T11:05:40.218Z,7.47
2024-02-19T11:08:21.430Z,4.88
2024-02-19T11:10:49.981Z,7.10
2024-02-19T11:13:28.725Z,6.50
2024-02-19T11:15:57.034Z,6.03
2024-02-19T11:18:25.047Z,6.97
2024-02-19T11:20:52.649Z,5.53
2024-02-19T11:23:21.918Z,8.63
2024-02-19T11:25:49.509Z,4.72
2024-02-19T11:28:17.630Z,3.38
2024-02-19T11:30:48.024Z,4.68
2024-02-19T11:33:16.072Z,5.05
2024-02-19T11:35:45.246Z,4.03
2024-02-19T11:38:13.300Z,4.63
2024-02-19T11:40:41.218Z,8.73
2024-02-19T11:43:10.071Z,7.68
2024-02-19T11:45:39.400Z,7.40
2024-02-19T11:48:07.502Z,5.63
2024-02-19T11:50:35.360Z,6.53
2024-02-19T11:53:04.769Z,6.97
2024-02-19T11:55:34.829Z,4.82
2024-02-19T11:58:03.911Z,5.47
2024-02-19T12:00:33.063Z,5.35
2024-02-19T12:03:01.744Z,5.97
2024-02-19T12:05:29.693Z,5.80
2024-02-19T12:07:57.903Z,6.88
2024-02-19T12:10:25.885Z,4.20
2024-02-19T12:12:55.540Z,7.45
2024-02-19T12:15:23.493Z,6.45
2024-02-19T12:17:53.612Z,9.43
2024-02-19T12:20:22.257Z,5.55
2024-02-19T12:22:50.109Z,7.13
2024-02-19T12:25:18.129Z,6.13
2024-02-19T12:27:47.714Z,7.03
2024-02-19T12:30:15.372Z,5.75
2024-02-19T12:32:44.746Z,6.85
2024-02-19T12:35:12.513Z,9.27
2024-02-19T12:37:40.176Z,6.80
2024-02-19T12:40:08.867Z,5.97
2024-02-19T12:42:36.399Z,5.57
2024-02-19T12:45:04.516Z,6.88
2024-02-19T12:47:32.495Z,5.93
2024-02-19T12:50:00.160Z,6.25
2024-02-19T12:52:28.775Z,5.60
2024-02-19T12:54:57.226Z,6.93
2024-02-19T12:57:25.115Z,5.00
2024-02-19T12:59:52.625Z,7.65
2024-02-19T13:02:20.465Z,7.38
2024-02-19T13:04:51.219Z,7.57
2024-02-19T13:07:19.213Z,6.20
2024-02-19T13:09:47.076Z,6.82
2024-02-19T13:12:15.651Z,5.20
2024-02-19T13:14:45.028Z,6.00
2024-02-19T13:17:22.884Z,7.95
2024-02-19T13:19:54.121Z,5.38
2024-02-19T13:22:22.977Z,7.70
2024-02-19T13:24:51.026Z,4.93
2024-02-19T13:27:20.909Z,7.43
2024-02-19T13:29:48.576Z,7.90
2024-02-19T13:32:16.280Z,8.65
2024-02-19T13:34:43.977Z,6.68
2024-02-19T13:37:11.742Z,6.03
2024-02-19T13:39:39.449Z,5.82
2024-02-19T13:42:07.118Z,6.57
2024-02-19T13:44:34.721Z,8.02
2024-02-19T13:47:02.432Z,6.00
2024-02-19T13:49:30.663Z,7.15
2024-02-19T13:51:58.553Z,5.28
2024-02-19T13:54:26.047Z,8.95
2024-02-19T13:56:55.249Z,11.35
2024-02-19T13:59:23.092Z,7.22
2024-02-19T14:01:50.678Z,5.07
2024-02-19T14:04:18.338Z,4.68
2024-02-19T14:06:46.442Z,6.43
2024-02-19T14:09:14.248Z,6.22
2024-02-19T14:11:42.001Z,7.15
2024-02-19T14:14:10.105Z,6.53
2024-02-19T14:16:37.934Z,7.43
2024-02-19T14:19:05.686Z,5.15
2024-02-19T14:21:33.461Z,8.05
2024-02-19T14:24:01.632Z,6.60
2024-02-19T14:26:30.562Z,6.28
2024-02-19T14:28:58.923Z,5.60
2024-02-19T14:31:26.576Z,4.90
2024-02-19T14:33:54.637Z,6.18
2024-02-19T14:36:25.775Z,6.45
2024-02-19T14:38:54.450Z,6.07
2024-02-19T14:41:22.967Z,6.32
2024-02-19T14:43:50.874Z,6.57
2024-02-19T14:46:19.396Z,8.52
2024-02-19T14:48:47.874Z,5.82
2024-02-19T14:51:19.877Z,6.40
2024-02-19T14:53:49.255Z,7.35
2024-02-19T14:56:17.300Z,6.60
2024-02-19T14:58:44.804Z,6.03
2024-02-19T15:01:13.889Z,6.88
2024-02-19T15:03:41.681Z,5.30
2024-02-19T15:06:10.544Z,5.95
2024-02-19T15:08:38.469Z,6.93
2024-02-19T15:11:06.064Z,7.97
2024-02-19T15:13:35.305Z,8.77
2024-02-19T15:16:03.154Z,6.30
2024-02-19T15:18:31.071Z,7.88
2024-02-19T15:20:59.416Z,8.13
2024-02-19T15:23:26.891Z,7.35
2024-02-19T15:25:54.489Z,6.63
2024-02-19T15:28:22.270Z,5.65
2024-02-19T15:30:50.302Z,9.77
2024-02-19T15:33:18.051Z,7.63
2024-02-19T15:35:46.814Z,19.80
2024-02-19T15:38:15.198Z,8.07
2024-02-19T15:40:42.801Z,9.07
2024-02-19T15:43:10.545Z,6.97
2024-02-19T15:45:39.456Z,7.20
2024-02-19T15:48:07.875Z,9.48
2024-02-19T15:50:35.455Z,8.32
2024-02-19T15:53:06.681Z,7.95
2024-02-19T15:55:35.473Z,7.68
2024-02-19T15:58:03.046Z,7.72
2024-02-19T16:00:33.697Z,8.98
2024-02-19T16:03:01.360Z,8.07
2024-02-19T16:05:29.007Z,9.25
2024-02-19T16:07:57.458Z,6.65
2024-02-19T16:10:25.092Z,10.27
2024-02-19T16:12:54.215Z,6.80
2024-02-19T16:15:22.533Z,5.68
2024-02-19T16:17:50.512Z,7.00
2024-02-19T16:20:19.149Z,5.78
2024-02-19T16:22:48.274Z,8.57
2024-02-19T16:25:15.913Z,6.37
2024-02-19T16:27:44.483Z,6.40
2024-02-19T16:30:14.739Z,9.65
2024-02-19T16:32:42.705Z,16.40
2024-02-19T16:35:12.600Z,13.07
2024-02-19T16:37:41.452Z,5.43
2024-02-19T16:40:09.828Z,5.55
2024-02-19T16:42:39.410Z,7.47
2024-02-19T16:47:34.893Z,6.07
2024-02-19T16:50:02.931Z,6.80
2024-02-19T16:52:30.864Z,8.52
2024-02-19T16:54:58.948Z,10.70
2024-02-19T16:57:27.130Z,9.80
2024-02-19T16:59:54.712Z,7.05
2024-02-19T17:02:23.212Z,6.28
2024-02-19T17:04:53.048Z,6.45
2024-02-19T17:09:49.130Z,6.65
2024-02-19T17:12:16.919Z,7.90
2024-02-19T17:14:46.162Z,6.28
2024-02-19T17:17:13.685Z,8.02
2024-02-19T17:19:41.444Z,8.18
2024-02-19T17:22:09.502Z,7.10
2024-02-19T17:24:39.870Z,7.82
2024-02-19T17:27:09.017Z,7.30
2024-02-19T17:29:37.091Z,9.05
2024-02-19T17:32:05.143Z,6.82
2024-02-19T17:34:32.996Z,7.88
2024-02-19T17:37:02.547Z,6.63
2024-02-19T17:39:30.063Z,9.10
2024-02-19T17:41:57.607Z,7.85
2024-02-19T17:44:25.911Z,9.68
2024-02-19T17:46:55.536Z,7.53
2024-02-19T17:49:23.448Z,8.80
2024-02-19T17:51:54.374Z,6.90
2024-02-19T17:54:22.437Z,7.25
2024-02-19T17:56:49.876Z,8.02
2024-02-19T17:59:17.559Z,7.90
2024-02-19T18:01:45.569Z,8.10
2024-02-19T18:04:13.652Z,7.32
2024-02-19T18:06:41.320Z,6.63
2024-02-19T18:09:10.795Z,7.20
2024-02-19T18:11:38.406Z,7.22
2024-02-19T18:14:06.033Z,8.65
2024-02-19T18:16:34.439Z,8.95
2024-02-19T18:19:02.335Z,7.97
2024-02-19T18:21:29.933Z,7.97
2024-02-19T18:23:58.992Z,7.43
2024-02-19T18:26:27.886Z,8.27
2024-02-19T18:28:57.515Z,6.85
2024-02-19T18:31:25.762Z,9.55
2024-02-19T18:33:53.514Z,8.10
2024-02-19T18:36:21.345Z,8.93
2024-02-19T18:38:49.212Z,7.38
2024-02-19T18:41:16.922Z,6.15
2024-02-19T18:43:45.133Z,7.82
2024-02-19T18:46:12.647Z,7.95
2024-02-19T18:48:43.253Z,6.53
2024-02-19T18:51:12.207Z,6.95
2024-02-19T18:53:40.745Z,6.10
2024-02-19T18:56:08.365Z,7.55
2024-02-19T18:58:36.138Z,6.60
2024-02-19T19:01:05.835Z,6.95
2024-02-19T19:03:33.943Z,7.45
2024-02-19T19:06:04.932Z,7.63
2024-02-19T19:08:34.055Z,10.02
2024-02-19T19:11:01.598Z,8.77
2024-02-19T19:13:29.576Z,6.15
2024-02-19T19:15:57.596Z,6.78
2024-02-19T19:18:26.089Z,7.15
2024-02-19T19:20:53.776Z,8.25
2024-02-19T19:23:21.754Z,7.63
2024-02-19T19:25:50.807Z,5.53
2024-02-19T19:28:20.266Z,8.70
2024-02-19T19:30:48.116Z,7.70
2024-02-19T19:33:18.810Z,9.00
2024-02-19T19:35:49.368Z,7.57
2024-02-19T19:38:17.422Z,7.05
2024-02-19T19:40:45.253Z,6.68
2024-02-19T19:43:13.110Z,7.85
2024-02-19T19:45:40.477Z,11.02
2024-02-19T19:48:08.751Z,6.97
2024-02-19T19:50:37.091Z,7.68
2024-02-19T19:53:04.806Z,6.55
2024-02-19T19:55:32.894Z,10.27
2024-02-19T19:58:01.009Z,7.93
2024-02-19T20:00:29.203Z,6.70
2024-02-19T20:02:58.810Z,9.65
2024-02-19T20:05:26.505Z,14.00
2024-02-19T20:07:54.348Z,10.68
2024-02-19T20:10:21.886Z,11.75
2024-02-19T20:12:50.916Z,12.20
2024-02-19T20:15:18.828Z,11.55
2024-02-19T20:17:46.515Z,9.65
2024-02-19T20:20:14.220Z,11.23
2024-02-19T20:22:42.467Z,8.63
2024-02-19T20:25:11.133Z,13.97
2024-02-19T20:27:40.574Z,13.45
2024-02-19T20:30:09.785Z,15.18
2024-02-19T20:32:37.573Z,15.50
2024-02-19T20:35:06.031Z,14.57
2024-02-19T20:37:33.987Z,18.25
2024-02-19T20:40:06.033Z,16.05
2024-02-19T20:42:35.850Z,14.65
2024-02-19T20:45:03.748Z,12.98
2024-02-19T20:47:31.738Z,14.52
2024-02-19T20:50:01.305Z,9.98
2024-02-19T20:52:31.177Z,15.50
2024-02-19T20:54:58.884Z,15.13
2024-02-19T20:57:26.426Z,13.18
2024-02-19T20:59:54.577Z,13.93
2024-02-19T21:02:22.569Z,10.88
2024-02-19T21:04:50.610Z,11.80
2024-02-19T21:07:18.573Z,13.25
2024-02-19T21:09:46.198Z,13.00
2024-02-19T21:12:13.874Z,10.18
2024-02-19T21:14:41.508Z,11.23
2024-02-19T21:17:09.375Z,10.55
2024-02-19T21:19:37.060Z,8.63
2024-02-19T21:22:04.844Z,11.15
2024-02-19T21:24:32.440Z,12.02
2024-02-19T21:27:00.712Z,12.73
2024-02-19T21:29:30.136Z,9.95
2024-02-19T21:34:25.409Z,9.98
2024-02-19T21:36:57.485Z,8.90
2024-02-19T21:39:26.303Z,9.68
2024-02-19T21:41:54.321Z,7.47
2024-02-19T21:44:23.254Z,9.68
2024-02-19T21:46:51.212Z,9.02
2024-02-19T21:49:20.820Z,9.68
2024-02-19T21:51:49.342Z,7.57
2024-02-19T21:54:17.255Z,10.90
2024-02-19T21:56:44.752Z,12.25
2024-02-19T21:59:12.520Z,10.80
2024-02-19T22:01:40.189Z,13.63
2024-02-19T22:04:09.654Z,12.75
2024-02-19T22:06:37.373Z,13.88
2024-02-19T22:09:05.214Z,9.93
2024-02-19T22:11:34.722Z,9.45
2024-02-19T22:14:02.484Z,9.68
2024-02-19T22:16:30.401Z,7.82
2024-02-19T22:18:58.203Z,6.43
2024-02-19T22:21:25.775Z,8.70
2024-02-19T22:23:53.458Z,6.97
2024-02-19T22:26:21.742Z,8.27
2024-02-19T22:28:49.385Z,6.03
2024-02-19T22:31:17.093Z,5.80
2024-02-19T22:33:44.677Z,5.25
2024-02-19T22:36:12.295Z,5.50
2024-02-19T22:38:40.134Z,5.60
2024-02-19T22:41:07.718Z,5.10
2024-02-19T22:43:35.464Z,5.22
2024-02-19T22:46:02.964Z,5.78
2024-02-19T22:48:30.643Z,3.72
2024-02-19T22:50:58.678Z,4.47
2024-02-19T22:53:26.268Z,6.95
2024-02-19T22:55:53.725Z,4.60
2024-02-19T22:58:31.263Z,6.50
2024-02-19T23:01:03.395Z,5.40
2024-02-19T23:03:31.457Z,5.43
2024-02-19T23:05:59.326Z,6.32
2024-02-19T23:08:27.268Z,4.35
2024-02-19T23:10:55.954Z,6.40
2024-02-19T23:13:23.613Z,3.67
2024-02-19T23:15:51.408Z,5.25
2024-02-19T23:18:19.092Z,5.28
2024-02-19T23:20:47.091Z,5.68
2024-02-19T23:23:14.578Z,3.97
2024-02-19T23:25:42.673Z,4.22
2024-02-19T23:28:10.265Z,3.67
2024-02-19T23:30:37.767Z,3.70
2024-02-19T23:33:06.065Z,5.85
2024-02-19T23:35:35.276Z,4.53
2024-02-19T23:38:03.182Z,4.82
2024-02-19T23:40:30.935Z,4.07
2024-02-19T23:42:58.852Z,4.97
2024-02-19T23:45:26.380Z,2.90
2024-02-19T23:47:54.192Z,2.90
2024-02-19T23:50:21.864Z,5.20
2024-02-19T23:52:49.642Z,2.33
2024-02-19T23:55:18.514Z,3.55
2024-02-19T23:57:46.221Z,3.43
